Time;durP1;ratioP1;P1;durP2;ratioP2;P2;SDS_P1;SDS_P2;PMS_P1;PMS_P2;Temp;Humidity;BMP_temperature;BMP_pressure;BME280_temperature;BME280_humidity;BME280_pressure;Samples;Min_cycle;Max_cycle;Signal;HPM_P1;HPM_P2
2021/11/29 00:01:33;;;;;;;11.63;9.20;;;;;;;3.41;76.94;99097.75;5053726;28;20476;-50
2021/11/29 00:03:59;;;;;;;11.05;8.25;;;;;;;3.41;76.42;99109.06;5067508;28;20040;-55
2021/11/29 00:06:25;;;;;;;11.15;8.68;;;;;;;3.43;76.79;99111.63;5048392;28;20054;-50
2021/11/29 00:08:50;;;;;;;10.45;8.07;;;;;;;3.44;77.20;99118.59;5068707;28;20514;-50
2021/11/29 00:11:16;;;;;;;10.10;8.95;;;;;;;3.41;76.93;99109.06;5070921;28;20610;-51
2021/11/29 00:13:41;;;;;;;10.35;8.60;;;;;;;3.42;76.56;99120.34;5034807;28;20660;-52
2021/11/29 00:16:08;;;;;;;10.18;8.85;;;;;;;3.41;76.26;99114.28;5069701;28;20035;-49
2021/11/29 00:18:34;;;;;;;11.48;9.20;;;;;;;3.40;76.63;99117.72;5067978;28;20067;-50
2021/11/29 00:21:00;;;;;;;11.20;8.88;;;;;;;3.40;76.51;99115.13;5069696;28;20064;-51
2021/11/29 00:23:25;;;;;;;11.50;9.02;;;;;;;3.41;76.87;99124.69;5069922;28;20059;-50
2021/11/29 00:25:50;;;;;;;9.50;8.13;;;;;;;3.41;77.36;99124.69;5048575;28;20020;-50
2021/11/29 00:28:16;;;;;;;11.13;8.30;;;;;;;3.41;77.29;99124.69;5069021;28;20028;-52
2021/11/29 00:30:42;;;;;;;10.20;8.55;;;;;;;3.41;76.97;99124.69;5053447;28;20036;-51
2021/11/29 00:33:09;;;;;;;10.40;8.02;;;;;;;3.40;77.26;99128.16;5051984;28;20020;-50
2021/11/29 00:35:34;;;;;;;9.68;8.23;;;;;;;3.38;76.66;99124.72;5051098;28;20533;-50
2021/11/29 00:38:00;;;;;;;9.68;8.68;;;;;;;3.40;76.98;99128.16;5052298;28;20040;-51
2021/11/29 00:40:26;;;;;;;11.82;8.45;;;;;;;3.40;76.43;99130.75;5068933;28;20070;-52
2021/11/29 00:42:52;;;;;;;9.27;7.63;;;;;;;3.40;76.15;99132.53;5069612;28;20109;-51
2021/11/29 00:45:17;;;;;;;9.40;8.40;;;;;;;3.38;76.71;99136.88;5052224;28;20116;-52
2021/11/29 00:47:42;;;;;;;10.13;8.07;;;;;;;3.39;76.33;99134.25;5066747;28;20059;-51
2021/11/29 00:50:11;;;;;;;10.27;8.00;;;;;;;3.40;77.31;99130.75;5068961;28;20127;-50
2021/11/29 00:52:38;;;;;;;9.48;8.15;;;;;;;3.38;77.14;99137.75;5050808;28;20065;-49
2021/11/29 00:55:04;;;;;;;10.43;8.48;;;;;;;3.39;77.49;99131.66;5065667;28;20032;-50
2021/11/29 00:57:30;;;;;;;8.52;7.63;;;;;;;3.37;76.94;99138.59;5045616;28;20028;-50
2021/11/29 00:59:55;;;;;;;11.20;7.47;;;;;;;3.38;76.10;99135.13;5068303;28;20024;-50
2021/11/29 01:02:20;;;;;;;11.23;8.35;;;;;;;3.40;77.20;99142.94;5050401;28;20024;-51
2021/11/29 01:04:46;;;;;;;8.88;7.63;;;;;;;3.39;76.90;99144.69;5067090;28;20039;-50
2021/11/29 01:07:11;;;;;;;11.13;8.45;;;;;;;3.38;76.60;99144.69;5069506;28;20024;-51
2021/11/29 01:09:37;;;;;;;8.70;7.35;;;;;;;3.38;76.67;99149.91;5052873;28;20036;-50
2021/11/29 01:12:04;;;;;;;9.85;8.10;;;;;;;3.39;76.60;99154.22;5051494;28;20031;-52
2021/11/29 01:14:30;;;;;;;10.65;8.13;;;;;;;3.38;76.32;99145.56;5049298;28;20673;-50
2021/11/29 01:16:55;;;;;;;9.70;8.00;;;;;;;3.35;76.63;99150.78;5065069;28;20032;-55
2021/11/29 01:19:20;;;;;;;9.55;8.38;;;;;;;3.37;76.84;99153.38;5063709;28;20060;-50
2021/11/29 01:21:45;;;;;;;10.52;8.02;;;;;;;3.37;76.28;99159.44;5068864;28;20021;-50
2021/11/29 01:24:11;;;;;;;9.48;7.68;;;;;;;3.36;76.66;99152.50;5063785;28;20396;-51
2021/11/29 01:26:36;;;;;;;10.77;8.13;;;;;;;3.38;76.83;99161.19;5067689;28;20373;-51
2021/11/29 01:29:02;;;;;;;9.57;8.35;;;;;;;3.37;76.89;99163.81;5066981;28;20040;-51
2021/11/29 01:31:27;;;;;;;8.63;7.72;;;;;;;3.37;76.43;99175.09;5065206;28;20035;-50
2021/11/29 01:33:53;;;;;;;9.82;7.72;;;;;;;3.37;76.69;99164.66;5050388;28;20413;-51
2021/11/29 01:36:18;;;;;;;9.45;7.60;;;;;;;3.37;76.68;99169.03;5069976;28;20587;-49
2021/11/29 01:38:43;;;;;;;9.82;8.40;;;;;;;3.37;76.71;99164.66;5069753;28;20031;-50
2021/11/29 01:41:10;;;;;;;8.30;7.50;;;;;;;3.36;76.76;99162.94;5049496;28;20032;-50
2021/11/29 01:43:36;;;;;;;10.75;8.73;;;;;;;3.36;76.80;99172.50;5066972;28;20024;-51
2021/11/29 01:46:01;;;;;;;8.38;7.53;;;;;;;3.37;76.72;99180.28;5064212;28;20835;-51
2021/11/29 01:48:27;;;;;;;9.85;8.05;;;;;;;3.34;77.14;99175.13;5068396;28;20159;-51
2021/11/29 01:50:56;;;;;;;10.48;8.77;;;;;;;3.36;76.58;99185.53;5066278;28;20028;-50
2021/11/29 01:53:23;;;;;;;9.13;7.95;;;;;;;3.35;76.70;99182.06;5049088;28;20388;-50
2021/11/29 01:55:50;;;;;;;9.75;7.88;;;;;;;3.36;77.23;99173.34;5067132;28;20037;-51
2021/11/29 01:58:15;;;;;;;8.60;7.65;;;;;;;3.35;77.33;99174.25;5050493;28;20480;-52
2021/11/29 02:00:45;;;;;;;8.27;7.25;;;;;;;3.36;76.75;99182.94;5069169;28;20035;-50
2021/11/29 02:03:12;;;;;;;10.88;7.93;;;;;;;3.36;77.14;99172.50;5067380;28;20036;-51
2021/11/29 02:05:38;;;;;;;9.82;7.95;;;;;;;3.35;77.26;99176.84;5067378;28;20038;-50
2021/11/29 02:08:04;;;;;;;9.70;8.68;;;;;;;3.34;76.69;99175.97;5069407;28;20028;-53
2021/11/29 02:10:29;;;;;;;9.07;8.15;;;;;;;3.34;77.08;99165.53;5065192;28;20024;-51
2021/11/29 02:12:55;;;;;;;9.73;8.63;;;;;;;3.35;76.81;99171.63;5066298;28;20028;-50
2021/11/29 02:15:21;;;;;;;10.77;8.10;;;;;;;3.33;77.14;99168.16;5046782;28;20024;-50
2021/11/29 02:17:47;;;;;;;9.70;7.70;;;;;;;3.31;76.63;99164.69;5066827;28;20499;-50
2021/11/29 02:20:14;;;;;;;9.40;8.25;;;;;;;3.34;76.96;99175.97;5068279;28;20674;-51
2021/11/29 02:22:44;;;;;;;10.60;8.20;;;;;;;3.34;76.48;99175.13;5065083;28;20029;-50
2021/11/29 02:25:12;;;;;;;11.18;8.43;;;;;;;3.34;76.48;99175.13;5068744;28;20024;-51
2021/11/29 02:27:39;;;;;;;9.45;8.38;;;;;;;3.32;77.06;99172.50;5066933;28;20040;-50
2021/11/29 02:30:05;;;;;;;10.60;8.57;;;;;;;3.34;76.10;99175.13;5047937;28;20082;-51
2021/11/29 02:32:30;;;;;;;8.63;7.78;;;;;;;3.33;77.25;99183.78;5028766;28;20028;-50
2021/11/29 02:34:57;;;;;;;9.90;7.78;;;;;;;3.33;76.57;99189.00;5067554;28;20099;-49
2021/11/29 02:37:25;;;;;;;8.85;7.40;;;;;;;3.33;76.81;99194.22;5066414;28;20488;-50
2021/11/29 02:39:51;;;;;;;11.57;9.52;;;;;;;3.32;76.60;99198.56;5068588;28;20043;-52
2021/11/29 02:42:16;;;;;;;11.75;8.10;;;;;;;3.32;76.92;99192.47;5063563;28;20032;-50
2021/11/29 02:44:42;;;;;;;11.32;8.38;;;;;;;3.29;76.96;99188.16;5066043;28;20028;-51
2021/11/29 02:47:09;;;;;;;9.90;8.40;;;;;;;3.30;76.32;99200.31;5066062;28;20504;-50
2021/11/29 02:49:34;;;;;;;12.13;8.57;;;;;;;3.30;76.88;99195.09;5062026;28;20027;-49
2021/11/29 02:52:08;;;;;;;9.57;8.57;;;;;;;3.32;76.93;99197.69;5063551;28;20028;-53
2021/11/29 02:54:35;;;;;;;11.05;9.10;;;;;;;3.32;76.96;99201.19;5066627;28;20022;-50
2021/11/29 02:57:04;;;;;;;10.85;8.50;;;;;;;3.32;77.07;99192.47;5050299;28;21326;-49
2021/11/29 02:59:32;;;;;;;9.43;8.38;;;;;;;3.32;76.61;99187.28;5068975;28;20445;-50
2021/11/29 03:01:59;;;;;;;10.52;8.70;;;;;;;3.30;76.25;99195.09;5065473;28;20130;-50
2021/11/29 03:04:27;;;;;;;10.88;9.27;;;;;;;3.32;76.38;99195.09;5050166;28;20035;-50
2021/11/29 03:06:53;;;;;;;9.30;8.40;;;;;;;3.32;76.32;99202.91;5066541;28;20028;-52
2021/11/29 03:09:24;;;;;;;11.25;8.88;;;;;;;3.31;76.53;99196.81;5067060;28;20032;-49
2021/11/29 03:11:50;;;;;;;10.35;8.30;;;;;;;3.31;77.13;99206.41;5054827;28;20036;-52
2021/11/29 03:14:17;;;;;;;11.73;8.50;;;;;;;3.32;76.48;99209.00;5070142;28;20115;-49
2021/11/29 03:16:42;;;;;;;10.95;8.50;;;;;;;3.30;76.29;99209.88;5072450;28;20031;-52
2021/11/29 03:19:08;;;;;;;10.52;8.60;;;;;;;3.31;76.70;99212.44;5071885;28;20025;-50
2021/11/29 03:21:33;;;;;;;9.88;8.68;;;;;;;3.31;77.12;99204.63;5068266;28;20472;-50
2021/11/29 03:24:01;;;;;;;9.75;8.30;;;;;;;3.31;76.83;99204.63;5071756;28;20036;-54
2021/11/29 03:26:28;;;;;;;10.25;8.52;;;;;;;3.31;76.63;99211.59;5054327;28;20052;-50
2021/11/29 03:28:58;;;;;;;10.35;8.80;;;;;;;3.30;77.09;99209.88;5066531;28;20025;-50
2021/11/29 03:31:25;;;;;;;10.95;8.13;;;;;;;3.31;77.00;99211.59;5050674;28;20117;-50
2021/11/29 03:34:12;;;;;;;10.73;8.02;;;;;;;3.30;76.94;99209.88;5071290;28;20052;-51
2021/11/29 03:36:40;;;;;;;10.48;8.10;;;;;;;3.30;77.33;99210.72;5069474;28;20488;-49
2021/11/29 03:39:09;;;;;;;10.80;8.57;;;;;;;3.29;76.97;99208.13;5069389;28;20356;-52
2021/11/29 03:41:36;;;;;;;9.05;7.85;;;;;;;3.30;76.33;99217.69;5070998;28;20032;-49
2021/11/29 03:44:01;;;;;;;11.85;8.90;;;;;;;3.28;76.73;99211.59;5054004;28;20033;-50
2021/11/29 03:46:27;;;;;;;10.07;7.75;;;;;;;3.31;76.74;99214.22;5050619;28;20045;-49
2021/11/29 03:48:52;;;;;;;10.30;8.55;;;;;;;3.30;76.99;99218.56;5067273;28;20033;-50
2021/11/29 03:51:18;;;;;;;12.70;8.93;;;;;;;3.28;76.06;99217.69;5069037;28;20483;-50
2021/11/29 03:53:43;;;;;;;10.30;8.75;;;;;;;3.28;76.90;99214.22;5070350;28;20017;-51
2021/11/29 03:56:08;;;;;;;9.40;8.35;;;;;;;3.29;77.17;99213.34;5069286;28;20484;-51
2021/11/29 03:58:34;;;;;;;10.52;8.80;;;;;;;3.30;76.31;99217.69;5069388;28;20065;-49
2021/11/29 04:00:59;;;;;;;10.88;8.05;;;;;;;3.29;76.82;99222.03;5063847;28;20098;-51
2021/11/29 04:03:24;;;;;;;9.80;7.97;;;;;;;3.29;76.43;99215.94;5070549;28;20231;-50
2021/11/29 04:05:50;;;;;;;10.07;8.20;;;;;;;3.29;76.58;99216.81;5050381;28;20020;-51
2021/11/29 04:08:15;;;;;;;10.32;8.55;;;;;;;3.29;76.47;99224.63;5070409;28;20089;-50
2021/11/29 04:10:41;;;;;;;9.82;8.10;;;;;;;3.30;76.77;99225.53;5068849;28;20089;-51
2021/11/29 04:13:07;;;;;;;13.23;8.00;;;;;;;3.29;76.36;99229.84;5067384;28;20016;-51
2021/11/29 04:15:32;;;;;;;10.65;7.80;;;;;;;3.30;76.74;99225.53;5067283;28;20023;-51
2021/11/29 04:17:58;;;;;;;10.80;8.60;;;;;;;3.27;77.05;99236.78;5065811;28;20138;-51
2021/11/29 04:20:32;;;;;;;9.77;7.95;;;;;;;3.29;76.48;99234.19;5065206;28;20066;-51
2021/11/29 04:22:57;;;;;;;10.65;8.65;;;;;;;3.28;76.52;99237.66;5062260;28;20029;-51
2021/11/29 04:25:24;;;;;;;9.85;8.15;;;;;;;3.27;76.40;99235.94;5066642;28;20028;-51
2021/11/29 04:27:53;;;;;;;9.50;7.88;;;;;;;3.26;76.29;99236.78;5066820;28;20032;-50
2021/11/29 04:30:22;;;;;;;11.35;8.85;;;;;;;3.27;76.24;99239.41;5067400;28;20024;-51
2021/11/29 04:32:49;;;;;;;14.25;9.23;;;;;;;3.28;76.56;99242.88;5065818;28;20021;-50
2021/11/29 04:35:15;;;;;;;12.45;9.15;;;;;;;3.28;76.65;99237.66;5067215;28;20078;-51
2021/11/29 04:37:41;;;;;;;10.13;8.25;;;;;;;3.28;76.61;99237.66;5068084;28;20036;-50
2021/11/29 04:40:07;;;;;;;11.13;9.38;;;;;;;3.28;76.75;99241.16;5061589;28;20104;-51
2021/11/29 04:42:32;;;;;;;11.43;8.90;;;;;;;3.26;76.80;99239.41;5069991;28;20027;-51
2021/11/29 04:44:58;;;;;;;10.35;8.18;;;;;;;3.26;77.06;99240.28;5069930;28;20033;-51
2021/11/29 04:47:23;;;;;;;11.38;8.95;;;;;;;3.26;76.47;99240.28;5068154;28;20052;-51
2021/11/29 04:49:49;;;;;;;11.50;8.68;;;;;;;3.25;76.47;99237.66;5066381;28;20038;-51
2021/11/29 04:52:16;;;;;;;11.23;8.65;;;;;;;3.26;76.58;99244.59;5068313;28;20020;-51
2021/11/29 04:54:41;;;;;;;12.82;9.43;;;;;;;3.25;76.38;99238.56;5067140;28;20104;-51
2021/11/29 04:57:08;;;;;;;11.98;8.98;;;;;;;3.26;76.48;99244.59;5050715;28;20123;-51
2021/11/29 04:59:34;;;;;;;11.48;8.25;;;;;;;3.28;76.95;99250.69;5070805;28;20028;-51
2021/11/29 05:02:01;;;;;;;11.82;8.88;;;;;;;3.26;76.75;99239.41;5066659;28;20021;-51
2021/11/29 05:04:27;;;;;;;11.75;8.48;;;;;;;3.27;76.26;99254.19;5049780;28;20409;-51
2021/11/29 05:06:52;;;;;;;10.82;8.73;;;;;;;3.26;77.18;99249.81;5052060;28;20036;-51
2021/11/29 05:09:18;;;;;;;13.63;9.63;;;;;;;3.26;76.12;99255.91;5069816;28;20028;-50
2021/11/29 05:11:43;;;;;;;12.73;9.25;;;;;;;3.25;76.25;99254.19;5049283;28;20070;-51
2021/11/29 05:14:09;;;;;;;15.82;10.35;;;;;;;3.25;76.44;99259.41;5070386;28;20089;-50
2021/11/29 05:16:35;;;;;;;12.38;8.75;;;;;;;3.25;76.61;99261.13;5070191;28;20024;-51
2021/11/29 05:19:01;;;;;;;11.82;9.60;;;;;;;3.26;76.64;99265.47;5069167;28;20546;-50
2021/11/29 05:21:28;;;;;;;12.85;8.93;;;;;;;3.25;76.99;99259.41;5068432;28;20108;-51
2021/11/29 05:23:53;;;;;;;10.93;8.88;;;;;;;3.24;76.89;99268.09;5068311;28;20392;-51
2021/11/29 05:26:21;;;;;;;10.43;8.82;;;;;;;3.24;76.52;99264.59;5065408;28;20480;-51
2021/11/29 05:28:48;;;;;;;12.95;9.65;;;;;;;3.25;76.86;99267.22;5047212;28;20032;-51
2021/11/29 05:31:14;;;;;;;12.02;9.07;;;;;;;3.25;76.39;99275.03;5051330;28;20036;-51
2021/11/29 05:33:39;;;;;;;12.70;9.38;;;;;;;3.26;76.55;99278.50;5049178;28;20098;-51
2021/11/29 05:36:04;;;;;;;11.40;9.15;;;;;;;3.25;76.60;99281.97;5066788;28;20468;-51
2021/11/29 05:38:30;;;;;;;11.13;9.02;;;;;;;3.24;76.55;99291.56;5051341;28;20024;-51
2021/11/29 05:40:55;;;;;;;10.70;8.98;;;;;;;3.23;76.41;99291.53;5067799;28;20047;-50
2021/11/29 05:43:21;;;;;;;14.23;10.63;;;;;;;3.23;76.72;99297.59;5067121;28;20031;-51
2021/11/29 05:45:46;;;;;;;13.18;9.68;;;;;;;3.24;76.57;99294.16;5067962;28;20021;-51
2021/11/29 05:48:11;;;;;;;13.85;9.52;;;;;;;3.25;76.79;99295.00;5068382;28;20027;-51
2021/11/29 05:50:37;;;;;;;14.88;9.63;;;;;;;3.25;76.54;99305.44;5067649;28;20047;-51
2021/11/29 05:53:03;;;;;;;11.88;10.05;;;;;;;3.25;77.07;99316.72;5050989;28;20024;-51
2021/11/29 05:55:29;;;;;;;13.10;9.00;;;;;;;3.25;76.71;99310.63;5067804;28;20099;-51
2021/11/29 05:57:54;;;;;;;13.80;9.88;;;;;;;3.23;76.20;99308.03;5050943;28;20091;-50
2021/11/29 06:00:20;;;;;;;12.60;9.50;;;;;;;3.25;76.18;99321.06;5069061;28;20025;-50
2021/11/29 06:03:44;;;;;;;12.25;9.55;;;;;;;3.25;76.37;99326.28;5067964;28;20027;-51
2021/11/29 06:06:09;;;;;;;16.02;11.07;;;;;;;3.20;76.56;99321.94;5065476;28;20935;-50
2021/11/29 06:08:34;;;;;;;14.43;10.20;;;;;;;3.20;76.48;99324.53;5068853;28;20056;-51
2021/11/29 06:11:00;;;;;;;12.68;9.70;;;;;;;3.21;76.18;99330.63;5064564;28;20032;-51
2021/11/29 06:13:25;;;;;;;13.20;9.43;;;;;;;3.23;76.91;99333.25;5069201;28;20095;-51
2021/11/29 06:15:50;;;;;;;13.93;10.70;;;;;;;3.17;76.74;99319.31;5067201;28;20021;-51
2021/11/29 06:18:15;;;;;;;14.20;11.20;;;;;;;3.22;76.95;99340.19;5067495;28;20480;-51
2021/11/29 06:20:41;;;;;;;14.25;11.15;;;;;;;3.22;77.09;99342.78;5066428;28;20048;-51
2021/11/29 06:23:07;;;;;;;14.10;9.88;;;;;;;3.23;76.41;99335.84;5065468;28;20143;-51
2021/11/29 06:25:32;;;;;;;13.30;9.23;;;;;;;3.23;75.83;99339.31;5064458;28;20110;-50
2021/11/29 06:27:58;;;;;;;13.48;9.48;;;;;;;3.20;76.38;99334.97;5066895;28;20027;-51
2021/11/29 06:30:25;;;;;;;14.73;9.88;;;;;;;3.23;77.04;99338.44;5047161;28;20024;-51
2021/11/29 06:32:52;;;;;;;15.43;10.75;;;;;;;3.20;76.32;99339.28;5065566;28;20024;-50
2021/11/29 06:35:18;;;;;;;15.85;11.85;;;;;;;3.21;76.57;99341.91;5066303;28;20028;-51
2021/11/29 06:37:47;;;;;;;14.65;10.20;;;;;;;3.22;76.85;99350.59;5069079;28;20111;-51
2021/11/29 06:40:13;;;;;;;15.48;11.10;;;;;;;3.23;76.71;99343.66;5067844;28;20543;-50
2021/11/29 06:42:38;;;;;;;15.18;9.85;;;;;;;3.23;76.56;99346.28;5067221;28;20411;-51
2021/11/29 06:45:04;;;;;;;13.98;10.30;;;;;;;3.20;76.88;99355.81;5066113;28;20025;-50
2021/11/29 06:47:30;;;;;;;14.13;11.05;;;;;;;3.21;76.94;99356.69;5065304;28;20087;-50
2021/11/29 06:49:55;;;;;;;14.88;9.85;;;;;;;3.21;76.17;99349.72;5065103;28;20140;-50
2021/11/29 06:52:20;;;;;;;14.63;9.95;;;;;;;3.23;76.84;99354.09;5066176;28;20396;-50
2021/11/29 06:54:49;;;;;;;15.15;10.98;;;;;;;3.19;76.50;99358.41;5067788;28;20484;-51
2021/11/29 06:57:16;;;;;;;14.15;10.60;;;;;;;3.19;76.62;99354.09;5066089;28;20036;-50
2021/11/29 06:59:43;;;;;;;14.63;10.30;;;;;;;3.22;76.09;99358.41;5067615;28;20756;-51
2021/11/29 07:02:08;;;;;;;14.18;10.60;;;;;;;3.19;76.53;99364.50;5063867;28;20032;-51
2021/11/29 07:04:34;;;;;;;17.10;12.05;;;;;;;3.21;76.72;99370.56;5063084;28;20017;-51
2021/11/29 07:06:59;;;;;;;13.57;9.73;;;;;;;3.21;76.92;99367.97;5066555;28;20555;-50
2021/11/29 07:09:25;;;;;;;13.40;9.90;;;;;;;3.21;76.70;99374.94;5049000;28;20025;-50
2021/11/29 07:11:50;;;;;;;14.65;10.55;;;;;;;3.23;76.63;99374.94;5062206;28;20119;-50
2021/11/29 07:14:15;;;;;;;15.88;11.00;;;;;;;3.20;77.07;99379.25;5063365;28;20499;-51
2021/11/29 07:16:47;;;;;;;15.73;10.88;;;;;;;3.19;76.43;99380.16;5048510;28;21510;-51
2021/11/29 07:19:12;;;;;;;;;;;;;;;3.17;76.88;99381.88;5065597;28;20369;-51
2021/11/29 07:21:37;;;;;;;15.68;10.55;;;;;;;3.19;76.46;99387.06;5066389;28;19919;-51
2021/11/29 07:24:03;;;;;;;17.40;11.10;;;;;;;3.18;76.25;99378.41;5062421;28;20115;-51
2021/11/29 07:26:28;;;;;;;15.50;11.20;;;;;;;3.18;76.91;99388.84;5066722;28;20021;-51
2021/11/29 07:28:53;;;;;;;14.35;10.77;;;;;;;3.18;77.03;99388.84;5046021;28;20109;-51
2021/11/29 07:31:18;;;;;;;16.60;11.68;;;;;;;3.18;76.38;99394.03;5061627;28;20417;-50
2021/11/29 07:33:44;;;;;;;16.98;11.18;;;;;;;3.19;76.71;99403.59;5064521;28;20024;-50
2021/11/29 07:36:09;;;;;;;14.93;10.73;;;;;;;3.19;76.57;99410.53;5061560;28;20036;-51
2021/11/29 07:38:34;;;;;;;14.38;10.75;;;;;;;3.20;76.45;99415.75;5062367;28;20096;-50
2021/11/29 07:41:00;;;;;;;15.98;10.20;;;;;;;3.17;76.31;99420.94;5061093;28;20074;-51
2021/11/29 07:43:25;;;;;;;14.75;9.77;;;;;;;3.20;76.37;99428.78;5044404;28;20484;-50
2021/11/29 07:45:51;;;;;;;13.93;10.95;;;;;;;3.20;76.65;99427.91;5064796;28;20031;-50
2021/11/29 07:48:18;;;;;;;15.57;10.65;;;;;;;3.20;76.20;99434.00;5060366;28;20033;-50
2021/11/29 07:50:44;;;;;;;15.20;10.80;;;;;;;3.21;76.45;99443.53;5063015;28;20036;-50
2021/11/29 07:53:09;;;;;;;15.23;10.40;;;;;;;3.21;76.20;99440.94;5063175;28;20389;-50
2021/11/29 07:55:35;;;;;;;14.60;10.38;;;;;;;3.22;76.48;99449.63;5063181;28;20099;-50
2021/11/29 07:58:02;;;;;;;13.32;9.45;;;;;;;3.21;76.15;99456.56;5065914;28;20448;-50
2021/11/29 08:00:30;;;;;;;14.90;10.32;;;;;;;3.21;76.52;99456.56;5066938;28;20475;-50
2021/11/29 08:02:58;;;;;;;13.32;9.57;;;;;;;3.21;76.17;99450.50;5065656;28;20017;-50
2021/11/29 08:05:25;;;;;;;16.42;10.30;;;;;;;3.22;76.56;99460.06;5064906;28;20028;-50
2021/11/29 08:07:52;;;;;;;15.40;10.52;;;;;;;3.20;76.44;99457.44;5046194;28;20020;-50
2021/11/29 08:10:18;;;;;;;12.77;9.30;;;;;;;3.20;76.36;99469.59;5044803;28;20747;-50
2021/11/29 08:12:44;;;;;;;14.75;9.80;;;;;;;3.20;76.52;99467.88;5064360;28;20100;-50
2021/11/29 08:15:10;;;;;;;13.77;9.63;;;;;;;3.19;76.46;99473.94;5069021;28;20068;-50
2021/11/29 08:17:35;;;;;;;15.13;10.07;;;;;;;3.19;76.28;99473.06;5066860;28;20023;-50
2021/11/29 08:20:01;;;;;;;13.30;8.50;;;;;;;3.20;76.56;99473.06;5068909;28;20043;-50
2021/11/29 08:22:26;;;;;;;14.13;9.60;;;;;;;3.19;76.44;99476.56;5064856;28;20016;-50
2021/11/29 08:24:51;;;;;;;12.25;9.27;;;;;;;3.19;76.54;99473.94;5067151;28;20032;-50
2021/11/29 08:27:17;;;;;;;12.65;9.27;;;;;;;3.19;76.78;99479.16;5070998;28;20450;-50
2021/11/29 08:29:43;;;;;;;12.02;8.18;;;;;;;3.18;76.44;99477.44;5065486;28;20255;-50
2021/11/29 08:32:08;;;;;;;11.93;8.85;;;;;;;3.15;76.57;99482.63;5069155;28;20020;-50
2021/11/29 08:34:37;;;;;;;13.00;9.55;;;;;;;3.18;76.24;99486.97;5070012;28;20039;-50
2021/11/29 08:37:03;;;;;;;11.40;9.18;;;;;;;3.21;76.19;99490.44;5064290;28;20029;-50
2021/11/29 08:39:28;;;;;;;12.85;8.82;;;;;;;3.21;76.48;99481.78;5064460;28;20029;-50
2021/11/29 08:41:53;;;;;;;11.77;9.48;;;;;;;3.19;76.10;99488.69;5061659;28;20025;-50
2021/11/29 08:44:19;;;;;;;14.02;9.80;;;;;;;3.20;76.04;99491.31;5062026;28;20039;-50
2021/11/29 08:46:50;;;;;;;10.20;8.50;;;;;;;3.20;76.22;99495.66;5066359;28;20081;-50
2021/11/29 08:49:16;;;;;;;12.20;9.30;;;;;;;3.21;76.25;99493.03;5060529;28;20439;-50
2021/11/29 08:51:43;;;;;;;13.32;9.13;;;;;;;3.20;76.60;99493.91;5043232;28;20495;-50
2021/11/29 08:54:08;;;;;;;11.68;8.55;;;;;;;3.16;76.47;99502.59;5067223;28;20025;-50
2021/11/29 08:56:33;;;;;;;11.15;8.05;;;;;;;3.21;75.79;99505.22;5065210;28;20028;-50
2021/11/29 08:58:59;;;;;;;14.10;9.55;;;;;;;3.19;76.41;99512.16;5061358;28;20036;-50
2021/11/29 09:01:24;;;;;;;10.30;8.50;;;;;;;3.18;76.80;99508.69;5060836;28;20460;-50
2021/11/29 09:03:49;;;;;;;14.07;9.02;;;;;;;3.18;76.10;99513.03;5057560;28;20423;-50
2021/11/29 09:06:14;;;;;;;12.25;8.73;;;;;;;3.20;76.61;99512.16;5061024;28;20056;-50
2021/11/29 09:08:40;;;;;;;11.82;8.10;;;;;;;3.18;76.69;99513.03;5058011;28;20052;-50
2021/11/29 09:11:07;;;;;;;12.25;8.52;;;;;;;3.18;75.69;99526.94;5058320;28;20036;-50
2021/11/29 09:13:34;;;;;;;9.95;7.72;;;;;;;3.21;76.00;99523.47;5059328;28;20401;-50
2021/11/29 09:16:04;;;;;;;11.23;7.53;;;;;;;3.20;76.25;99527.81;5060258;28;20449;-50
2021/11/29 09:18:31;;;;;;;11.27;8.32;;;;;;;3.19;76.30;99541.69;5061489;28;20036;-50
2021/11/29 09:20:56;;;;;;;10.80;7.72;;;;;;;3.19;76.46;99533.88;5061023;28;20033;-50
2021/11/29 09:23:22;;;;;;;10.40;7.10;;;;;;;3.20;76.60;99538.22;5066268;28;20400;-50
2021/11/29 09:25:48;;;;;;;10.85;8.55;;;;;;;3.18;76.65;99536.47;5066354;28;20028;-50
2021/11/29 09:28:15;;;;;;;10.85;7.43;;;;;;;3.19;76.55;99544.31;5066458;28;20472;-50
2021/11/29 09:30:42;;;;;;;8.45;7.13;;;;;;;3.20;76.40;99548.66;5062091;28;20054;-50
2021/11/29 09:33:07;;;;;;;10.98;7.95;;;;;;;3.18;76.33;99541.69;5056881;28;20087;-50
2021/11/29 09:35:33;;;;;;;10.35;7.10;;;;;;;3.18;76.24;99545.19;5060662;28;20044;-50
2021/11/29 09:37:59;;;;;;;8.98;6.82;;;;;;;3.19;76.29;99546.91;5060386;28;20101;-51
2021/11/29 09:40:29;;;;;;;10.18;7.28;;;;;;;3.20;76.92;99546.03;5065141;28;20541;-50
2021/11/29 09:42:54;;;;;;;8.95;6.63;;;;;;;3.20;76.44;99543.44;5061339;28;20032;-50
2021/11/29 09:45:22;;;;;;;8.60;7.10;;;;;;;3.20;76.51;99547.75;5065495;28;20790;-51
2021/11/29 09:47:48;;;;;;;9.45;6.72;;;;;;;3.21;76.45;99545.16;5042100;28;20079;-51
2021/11/29 09:50:14;;;;;;;9.30;6.50;;;;;;;3.21;76.07;99547.78;5058035;28;20036;-51
2021/11/29 09:52:40;;;;;;;10.52;6.75;;;;;;;3.18;76.57;99545.19;5060036;28;20029;-51
2021/11/29 09:55:07;;;;;;;8.85;6.40;;;;;;;3.18;76.38;99554.72;5025232;28;20414;-51
2021/11/29 09:57:33;;;;;;;10.40;6.63;;;;;;;3.18;76.56;99550.41;5062613;28;20025;-50
2021/11/29 09:59:58;;;;;;;8.15;6.43;;;;;;;3.18;76.40;99542.56;5061021;28;20381;-50
2021/11/29 10:02:23;;;;;;;8.82;6.38;;;;;;;3.18;76.50;99539.97;5063908;28;20132;-52
2021/11/29 10:04:49;;;;;;;6.93;5.82;;;;;;;3.15;76.35;99545.16;5057494;28;20499;-52
2021/11/29 10:07:28;;;;;;;8.48;6.35;;;;;;;3.17;76.39;99553.84;5043935;28;20535;-51
2021/11/29 10:09:56;;;;;;;9.95;6.43;;;;;;;3.15;77.04;99558.19;5059452;28;20393;-52
2021/11/29 10:12:21;;;;;;;8.02;6.05;;;;;;;3.16;76.39;99554.72;5043259;28;20044;-51
2021/11/29 10:15:21;;;;;;;9.50;6.43;;;;;;;3.16;76.39;99557.31;5057401;28;20366;-53
2021/11/29 10:17:54;;;;;;;9.03;7.00;;;;;;;3.15;76.64;99560.81;5052203;28;20048;-49
2021/11/29 10:20:19;;;;;;;7.43;5.43;;;;;;;3.17;76.44;99564.25;5045991;28;20036;-51
2021/11/29 10:23:00;;;;;;;7.97;6.07;;;;;;;3.17;76.83;99566.88;5060511;28;20029;-50
2021/11/29 10:25:25;;;;;;;8.45;6.43;;;;;;;3.17;76.98;99561.66;5040161;28;20035;-53
2021/11/29 10:27:51;;;;;;;7.47;6.70;;;;;;;3.16;77.03;99570.34;5062608;28;20040;-52
2021/11/29 10:30:19;;;;;;;8.02;6.05;;;;;;;3.16;76.49;99572.97;5059869;28;20028;-51
2021/11/29 10:32:47;;;;;;;8.23;6.20;;;;;;;3.17;76.12;99574.69;5061274;28;20481;-55
2021/11/29 10:35:19;;;;;;;6.40;5.70;;;;;;;3.17;76.70;99574.69;5057352;28;20056;-52
2021/11/29 10:37:46;;;;;;;7.60;5.47;;;;;;;3.16;76.88;99578.16;5044768;28;20068;-52
2021/11/29 10:40:14;;;;;;;8.43;6.55;;;;;;;3.16;76.76;99578.16;5059971;28;20021;-53
2021/11/29 10:42:40;;;;;;;6.57;5.28;;;;;;;3.17;76.54;99585.13;5057117;28;20056;-52
2021/11/29 10:45:08;;;;;;;7.35;5.80;;;;;;;3.15;76.92;99580.75;5054166;28;20444;-52
2021/11/29 10:47:35;;;;;;;7.32;5.78;;;;;;;3.14;77.40;99579.88;5058274;28;20032;-52
2021/11/29 10:50:04;;;;;;;7.95;5.68;;;;;;;3.16;77.14;99592.91;5057859;28;20017;-53
2021/11/29 10:52:36;;;;;;;6.68;5.03;;;;;;;3.15;76.57;99586.84;5053531;28;20103;-51
2021/11/29 10:55:02;;;;;;;;;;;;;;;3.17;76.86;99592.94;5058397;28;20111;-52
2021/11/29 10:57:28;;;;;;;7.32;6.10;;;;;;;3.13;76.67;99587.72;5058388;28;19916;-53
2021/11/29 10:59:54;;;;;;;8.05;6.18;;;;;;;3.13;77.00;99588.56;5054655;28;20029;-52
2021/11/29 11:02:27;;;;;;;7.15;5.25;;;;;;;3.15;76.62;99592.06;5062233;28;20059;-51
2021/11/29 11:05:09;;;;;;;7.05;5.55;;;;;;;3.14;76.69;99595.50;5056230;28;20024;-53
2021/11/29 11:07:35;;;;;;;;;;;;;;;3.15;76.68;99597.28;5058609;28;20048;-53
2021/11/29 11:10:06;;;;;;;8.02;6.45;;;;;;;3.15;76.76;99591.19;5051371;28;19963;-53
2021/11/29 11:12:33;;;;;;;9.23;6.47;;;;;;;3.16;77.06;99596.41;5059975;28;20075;-52
2021/11/29 11:15:04;;;;;;;8.50;7.32;;;;;;;3.15;77.17;99599.88;5036581;28;20134;-53
2021/11/29 11:17:36;;;;;;;10.32;8.50;;;;;;;3.14;76.63;99590.31;5056849;28;20021;-51
2021/11/29 11:20:12;;;;;;;8.45;7.43;;;;;;;3.15;77.29;99592.06;5054984;28;20430;-53
2021/11/29 11:22:42;;;;;;;10.65;8.15;;;;;;;3.16;76.99;99593.81;5041076;28;20027;-53
2021/11/29 11:25:14;;;;;;;10.85;9.45;;;;;;;3.17;76.97;99592.94;5032245;28;20454;-53
2021/11/29 11:27:47;;;;;;;9.88;8.43;;;;;;;3.17;77.36;99594.69;5041213;28;20032;-53
2021/11/29 11:30:14;;;;;;;11.38;8.55;;;;;;;3.16;76.64;99591.19;5053097;28;20036;-52
2021/11/29 11:32:45;;;;;;;11.93;9.68;;;;;;;3.17;76.28;99600.75;5060548;28;20417;-53
2021/11/29 11:35:13;;;;;;;14.30;10.95;;;;;;;3.18;76.81;99592.09;5063637;28;20052;-52